createdAt,value
2023-02-03T00:03:19.438Z,100916.38
2023-02-03T00:07:21.811Z,100925.06
2023-02-03T00:11:24.224Z,100920.94
2023-02-03T00:15:27.092Z,100921.72
2023-02-03T00:19:29.262Z,100907.91
2023-02-03T00:23:32.112Z,100909.91
2023-02-03T00:27:34.183Z,100924.50
2023-02-03T00:31:36.513Z,100927.00
2023-02-03T00:35:40.238Z,100930.66
2023-02-03T00:39:42.402Z,100926.41
2023-02-03T00:43:44.948Z,100947.09
2023-02-03T00:47:47.053Z,100942.75
2023-02-03T00:51:49.287Z,100942.84
2023-02-03T00:55:52.293Z,100950.59
2023-02-03T00:59:54.959Z,100959.28
2023-02-03T01:03:57.049Z,100949.06
2023-02-03T01:08:00.738Z,100950.75
2023-02-03T01:12:03.999Z,100952.53
2023-02-03T01:16:11.648Z,100959.44
2023-02-03T01:20:13.953Z,100962.00
2023-02-03T01:24:15.955Z,100962.94
2023-02-03T01:28:17.769Z,100965.59
2023-02-03T01:32:20.702Z,100970.59
2023-02-03T01:36:24.967Z,100968.16
2023-02-03T01:40:27.342Z,100981.84
2023-02-03T01:44:40.072Z,100975.75
2023-02-03T01:48:42.987Z,100986.78
2023-02-03T01:52:49.278Z,100989.41
2023-02-03T01:56:56.593Z,100983.28
2023-02-03T02:00:59.024Z,100975.56
2023-02-03T02:05:14.515Z,100988.50
2023-02-03T02:09:17.625Z,101001.38
2023-02-03T02:13:20.648Z,101005.88
2023-02-03T02:17:34.406Z,101008.44
2023-02-03T02:21:55.834Z,101009.19
2023-02-03T02:26:18.959Z,101004.09
2023-02-03T02:30:36.639Z,100996.38
2023-02-03T02:34:49.389Z,100999.72
2023-02-03T02:39:03.529Z,101009.13
2023-02-03T02:43:53.528Z,101004.88
2023-02-03T02:48:18.178Z,100989.34
2023-02-03T02:52:22.418Z,100989.25
2023-02-03T02:56:27.529Z,101000.50
2023-02-03T03:00:34.662Z,100979.91
2023-02-03T03:04:37.136Z,100991.25
2023-02-03T03:08:48.980Z,100994.63
2023-02-03T03:12:56.581Z,100993.81
2023-02-03T03:17:12.267Z,100994.63
2023-02-03T03:21:19.713Z,100988.72
2023-02-03T03:25:28.214Z,100983.69
2023-02-03T03:29:50.433Z,100983.69
2023-02-03T03:33:52.619Z,100979.44
2023-02-03T03:38:00.029Z,100975.19
2023-02-03T03:42:12.537Z,100968.47
2023-02-03T03:46:20.615Z,100955.69
2023-02-03T03:50:28.055Z,100953.09
2023-02-03T03:54:32.264Z,100952.25
2023-02-03T03:58:35.371Z,100955.72
2023-02-03T04:02:39.817Z,100949.78
2023-02-03T04:06:42.305Z,100944.63
2023-02-03T04:10:44.687Z,100930.13
2023-02-03T04:14:46.670Z,100931.84
2023-02-03T04:18:48.933Z,100923.28
2023-02-03T04:22:51.265Z,100920.72
2023-02-03T04:26:53.266Z,100912.19
2023-02-03T04:30:55.208Z,100917.34
2023-02-03T04:34:58.421Z,100919.97
2023-02-03T04:39:00.401Z,100921.66
2023-02-03T04:43:07.747Z,100910.53
2023-02-03T04:47:09.739Z,100903.66
2023-02-03T04:51:11.785Z,100903.66
2023-02-03T04:55:13.797Z,100902.78
2023-02-03T04:59:15.881Z,100902.81
2023-02-03T05:03:17.910Z,100906.19
2023-02-03T05:07:20.007Z,100899.34
2023-02-03T05:11:22.592Z,100900.22
2023-02-03T05:15:24.607Z,100894.22
2023-02-03T05:19:26.740Z,100888.19
2023-02-03T05:23:28.668Z,100883.94
2023-02-03T05:27:31.033Z,100883.13
2023-02-03T05:31:33.738Z,100882.25
2023-02-03T05:35:36.180Z,100865.94
2023-02-03T05:39:38.150Z,100878.81
2023-02-03T05:43:40.111Z,100867.69
2023-02-03T05:47:42.137Z,100855.72
2023-02-03T05:51:44.032Z,100860.81
2023-02-03T05:55:45.648Z,100859.97
2023-02-03T05:59:47.663Z,100853.09
2023-02-03T06:03:50.100Z,100847.97
2023-02-03T06:07:52.499Z,100846.25
2023-02-03T06:11:54.735Z,100842.00
2023-02-03T06:15:57.511Z,100838.53
2023-02-03T06:19:59.553Z,100825.69
2023-02-03T06:24:01.641Z,100813.72
2023-02-03T06:28:04.115Z,100806.00
2023-02-03T06:32:07.174Z,100806.81
2023-02-03T06:36:09.974Z,100799.94
2023-02-03T06:40:12.721Z,100782.78
2023-02-03T06:44:14.720Z,100773.28
2023-02-03T06:48:16.720Z,100766.38
2023-02-03T06:52:19.188Z,100762.94
2023-02-03T06:56:21.375Z,100759.50
2023-02-03T07:00:24.389Z,100749.97
2023-02-03T07:04:30.079Z,100749.00
2023-02-03T07:08:32.106Z,100747.22
2023-02-03T07:12:34.199Z,100739.41
2023-02-03T07:16:37.503Z,100737.72
2023-02-03T07:20:39.519Z,100734.06
2023-02-03T07:24:41.577Z,100736.72
2023-02-03T07:28:43.584Z,100720.38
2023-02-03T07:32:49.898Z,100725.47
2023-02-03T07:36:52.224Z,100721.09
2023-02-03T07:40:54.310Z,100714.94
2023-02-03T07:44:56.199Z,100711.38
2023-02-03T07:48:58.219Z,100701.94
2023-02-03T07:53:00.827Z,100701.72
2023-02-03T07:57:02.912Z,100702.44
2023-02-03T08:01:14.015Z,100710.09
2023-02-03T08:05:17.290Z,100714.16
2023-02-03T08:09:19.332Z,100718.25
2023-02-03T08:13:21.329Z,100718.19
2023-02-03T08:17:23.438Z,100707.63
2023-02-03T08:21:25.475Z,100718.78
2023-02-03T08:25:27.333Z,100717.00
2023-02-03T08:29:29.257Z,100718.63
2023-02-03T08:33:31.212Z,100720.44
2023-02-03T08:37:34.351Z,100714.03
2023-02-03T08:41:36.521Z,100712.09
2023-02-03T08:45:40.425Z,100703.41
2023-02-03T08:49:42.695Z,100694.53
2023-02-03T08:53:45.437Z,100692.97
2023-02-03T08:57:47.958Z,100693.09
2023-02-03T09:01:49.980Z,100677.53
2023-02-03T09:05:52.123Z,100678.84
2023-02-03T09:09:54.169Z,100670.63
2023-02-03T09:13:57.876Z,100658.41
2023-02-03T09:17:59.819Z,100649.44
2023-02-03T09:22:01.724Z,100639.72
2023-02-03T09:26:05.705Z,100640.22
2023-02-03T09:30:08.126Z,100633.41
2023-02-03T09:34:10.153Z,100633.16
2023-02-03T09:38:12.125Z,100628.56
2023-02-03T09:42:25.781Z,100615.13
2023-02-03T09:46:32.876Z,100613.44
2023-02-03T09:50:38.321Z,100591.53
2023-02-03T09:54:53.038Z,100584.03
2023-02-03T09:58:55.467Z,100574.28
2023-02-03T10:03:29.498Z,100552.75
2023-02-03T10:07:56.073Z,100541.06
2023-02-03T10:12:49.399Z,100528.44
2023-02-03T10:17:09.769Z,100518.47
2023-02-03T10:21:16.952Z,100509.72
2023-02-03T10:25:37.390Z,100505.19
2023-02-03T10:29:45.621Z,100487.84
2023-02-03T10:34:13.319Z,100496.41
2023-02-03T10:38:25.147Z,100473.78
2023-02-03T10:42:50.288Z,100463.41
2023-02-03T10:46:52.249Z,100446.97
2023-02-03T10:50:55.770Z,100444.00
2023-02-03T10:55:02.407Z,100428.78
2023-02-03T10:59:06.567Z,100400.59
2023-02-03T11:03:25.953Z,100386.31
2023-02-03T11:07:30.624Z,100374.81
2023-02-03T11:11:34.282Z,100355.00
2023-02-03T11:15:36.450Z,100338.97
2023-02-03T11:19:39.409Z,100321.25
2023-02-03T11:24:20.599Z,100316.47
2023-02-03T11:28:28.379Z,100301.44
2023-02-03T11:32:36.834Z,100296.75
2023-02-03T11:36:38.822Z,100276.78
2023-02-03T11:40:41.452Z,100263.31
2023-02-03T11:44:43.473Z,100239.34
2023-02-03T11:49:02.482Z,100226.13
2023-02-03T11:53:32.218Z,100210.97
2023-02-03T11:57:49.398Z,100204.63
2023-02-03T12:02:10.235Z,100193.34
2023-02-03T12:06:12.175Z,100170.13
2023-02-03T12:11:00.306Z,100169.75
2023-02-03T12:15:21.875Z,100165.91
2023-02-03T12:19:48.269Z,100158.03
2023-02-03T12:24:04.538Z,100158.81
2023-02-03T12:28:33.189Z,100139.81
2023-02-03T12:32:42.548Z,100128.75
2023-02-03T12:36:53.588Z,100123.94
2023-02-03T12:41:00.145Z,100117.44
2023-02-03T12:45:11.085Z,100106.84
2023-02-03T12:49:34.096Z,100092.63
2023-02-03T12:53:42.300Z,100076.13
2023-02-03T12:57:58.755Z,100069.53
2023-02-03T13:02:13.849Z,100047.00
2023-02-03T13:06:30.921Z,100033.41
2023-02-03T13:10:48.757Z,100014.53
2023-02-03T13:15:18.967Z,100001.63
2023-02-03T13:19:25.680Z,99981.22
2023-02-03T13:23:28.023Z,99972.66
2023-02-03T13:27:42.902Z,99957.31
2023-02-03T13:32:02.192Z,99942.84
2023-02-03T13:36:22.515Z,99936.75
2023-02-03T13:40:32.031Z,99908.50
2023-02-03T13:44:35.303Z,99904.91
2023-02-03T13:48:37.932Z,99889.84
2023-02-03T13:52:57.444Z,99880.16
2023-02-03T13:57:02.560Z,99871.91
2023-02-03T14:01:40.649Z,99859.22
2023-02-03T14:05:49.416Z,99846.00
2023-02-03T14:10:14.108Z,99830.22
2023-02-03T14:14:16.049Z,99818.09
2023-02-03T14:18:32.873Z,99791.22
2023-02-03T14:22:40.037Z,99772.13
2023-02-03T14:26:54.086Z,99735.97
2023-02-03T14:31:06.112Z,99712.06
2023-02-03T14:35:17.815Z,99696.28
2023-02-03T14:39:22.895Z,99676.84
2023-02-03T14:44:03.208Z,99671.88
2023-02-03T14:48:23.159Z,99651.34
2023-02-03T14:52:36.372Z,99650.53
2023-02-03T14:57:06.101Z,99638.25
2023-02-03T15:01:23.078Z,99635.69
2023-02-03T15:05:27.613Z,99636.63
2023-02-03T15:09:51.709Z,99621.81
2023-02-03T15:13:55.577Z,99618.25
2023-02-03T15:18:00.296Z,99615.03
2023-02-03T15:22:02.629Z,99600.34
2023-02-03T15:26:19.834Z,99595.94
2023-02-03T15:30:27.414Z,99600.41
2023-02-03T15:34:47.991Z,99591.19
2023-02-03T15:39:02.763Z,99576.75
2023-02-03T15:43:12.723Z,99580.56
2023-02-03T15:47:30.824Z,99567.75
2023-02-03T15:51:43.884Z,99554.59
2023-02-03T15:55:53.161Z,99555.63
2023-02-03T15:59:59.999Z,99544.34
2023-02-03T16:04:02.152Z,99533.53
2023-02-03T16:08:37.309Z,99531.47
2023-02-03T16:12:41.503Z,99527.63
2023-02-03T16:17:04.254Z,99520.03
2023-02-03T16:21:25.701Z,99513.78
2023-02-03T16:25:30.590Z,99500.09
2023-02-03T16:29:54.881Z,99488.16
2023-02-03T16:34:15.049Z,99495.22
2023-02-03T16:38:37.108Z,99480.44
2023-02-03T16:42:58.879Z,99464.47
2023-02-03T16:47:21.474Z,99467.13
2023-02-03T16:51:23.458Z,99452.78
2023-02-03T16:55:25.482Z,99468.91
2023-02-03T16:59:27.414Z,99462.88
2023-02-03T17:03:29.967Z,99464.44
2023-02-03T17:07:32.024Z,99467.16
2023-02-03T17:11:34.291Z,99476.94
2023-02-03T17:15:44.249Z,99461.91
2023-02-03T17:19:46.512Z,99459.97
2023-02-03T17:23:49.104Z,99467.16
2023-02-03T17:27:51.297Z,99465.28
2023-02-03T17:31:53.481Z,99461.91
2023-02-03T17:36:16.835Z,99468.41
2023-02-03T17:53:18.403Z,99488.19
2023-02-03T17:57:20.535Z,99485.88
2023-02-03T18:01:25.218Z,99494.97
2023-02-03T18:05:29.072Z,99498.44
2023-02-03T18:09:31.357Z,99488.72
2023-02-03T18:13:37.951Z,99483.75
2023-02-03T18:17:40.206Z,99487.16
2023-02-03T18:21:43.412Z,99491.19
2023-02-03T18:25:51.776Z,99503.97
2023-02-03T18:29:53.887Z,99497.41
2023-02-03T18:33:56.473Z,99492.22
2023-02-03T18:37:58.601Z,99493.03
2023-02-03T18:42:00.848Z,99502.97
2023-02-03T18:46:11.197Z,99514.56
2023-02-03T18:50:13.305Z,99518.41
2023-02-03T18:54:15.468Z,99523.34
2023-02-03T18:58:17.847Z,99522.56
2023-02-03T19:02:21.629Z,99527.81
2023-02-03T19:06:24.778Z,99528.47
2023-02-03T19:10:26.678Z,99515.63
2023-02-03T19:14:28.925Z,99524.69
2023-02-03T19:18:32.152Z,99526.44
2023-02-03T19:22:34.264Z,99532.34
2023-02-03T19:26:36.309Z,99529.28
2023-02-03T19:30:38.631Z,99530.22
2023-02-03T19:34:40.938Z,99538.75
2023-02-03T19:38:43.206Z,99534.84
2023-02-03T19:42:45.273Z,99528.50
2023-02-03T19:46:47.625Z,99519.91
2023-02-03T19:50:50.065Z,99536.44
2023-02-03T19:54:56.107Z,99542.56
2023-02-03T19:58:59.000Z,99535.28
2023-02-03T20:03:02.109Z,99546.97
2023-02-03T20:07:04.388Z,99554.28
2023-02-03T20:11:06.765Z,99568.59
2023-02-03T20:15:08.544Z,99564.00
2023-02-03T20:19:11.728Z,99557.31
2023-02-03T20:23:13.404Z,99563.03
2023-02-03T20:27:15.666Z,99571.03
2023-02-03T20:31:17.558Z,99571.03
2023-02-03T20:35:19.941Z,99579.06
2023-02-03T20:39:22.298Z,99595.69
2023-02-03T20:43:27.307Z,99609.22
2023-02-03T20:47:34.083Z,99613.66
2023-02-03T20:51:36.302Z,99610.34
2023-02-03T20:55:38.491Z,99617.06
2023-02-03T20:59:40.965Z,99624.50
2023-02-03T21:04:01.813Z,99609.19
2023-02-03T21:08:15.294Z,99620.91
2023-02-03T21:12:17.354Z,99627.47
2023-02-03T21:16:22.996Z,99639.53
2023-02-03T21:20:29.273Z,99654.31
2023-02-03T21:24:38.085Z,99664.97
2023-02-03T21:28:40.258Z,99667.47
2023-02-03T21:32:44.047Z,99689.53
2023-02-03T21:36:46.649Z,99683.34
2023-02-03T21:40:48.418Z,99687.78
2023-02-03T21:44:50.609Z,99704.03
2023-02-03T21:48:56.805Z,99712.19
2023-02-03T21:53:23.407Z,99702.47
2023-02-03T21:57:25.635Z,99707.25
2023-02-03T22:01:34.369Z,99717.78
2023-02-03T22:05:36.522Z,99727.91
2023-02-03T22:09:38.355Z,99728.97
2023-02-03T22:13:40.554Z,99729.88
2023-02-03T22:17:42.552Z,99727.72
2023-02-03T22:21:45.054Z,99733.72
2023-02-03T22:25:47.818Z,99732.25
2023-02-03T22:29:49.641Z,99732.34
2023-02-03T22:33:51.817Z,99759.00
2023-02-03T22:37:54.024Z,99767.03
2023-02-03T22:41:56.183Z,99758.34
2023-02-03T22:45:58.650Z,99752.59
2023-02-03T22:50:00.749Z,99765.59
2023-02-03T22:54:02.876Z,99776.56
2023-02-03T22:58:06.102Z,99778.47
2023-02-03T23:02:08.279Z,99782.81
2023-02-03T23:06:11.554Z,99777.84
2023-02-03T23:10:17.573Z,99790.53
2023-02-03T23:14:19.638Z,99782.72
2023-02-03T23:18:21.795Z,99793.25
2023-02-03T23:22:23.919Z,99806.22
2023-02-03T23:26:26.018Z,99820.19
2023-02-03T23:30:28.213Z,99831.34
2023-02-03T23:34:49.653Z,99846.75
2023-02-03T23:38:51.760Z,99865.16
2023-02-03T23:42:54.004Z,99869.50
2023-02-03T23:46:56.074Z,99877.16
2023-02-03T23:50:58.257Z,99894.81
2023-02-03T23:55:00.423Z,99902.06
2023-02-03T23:59:02.521Z,99904.72
